createdAt,value
2018-05-04T00:00:11.988Z,4.89
2018-05-04T00:02:37.715Z,4.87
2018-05-04T00:05:03.473Z,4.88
2018-05-04T00:07:29.212Z,4.70
2018-05-04T00:09:54.967Z,4.77
2018-05-04T00:12:20.718Z,4.63
2018-05-04T00:14:46.456Z,4.68
2018-05-04T00:17:12.197Z,4.60
2018-05-04T00:19:37.920Z,4.55
2018-05-04T00:22:03.696Z,4.54
2018-05-04T00:24:29.436Z,4.46
2018-05-04T00:26:55.284Z,4.29
2018-05-04T00:29:21.032Z,4.38
2018-05-04T00:31:46.769Z,4.27
2018-05-04T00:34:13.002Z,4.29
2018-05-04T00:36:39.172Z,4.39
2018-05-04T00:39:05.088Z,4.41
2018-05-04T00:41:30.841Z,4.53
2018-05-04T00:43:56.599Z,4.37
2018-05-04T00:46:22.369Z,4.29
2018-05-04T00:48:48.106Z,4.14
2018-05-04T00:51:13.843Z,4.06
2018-05-04T00:53:51.932Z,3.96
2018-05-04T00:56:17.782Z,4.14
2018-05-04T00:58:43.748Z,4.12
2018-05-04T01:01:09.493Z,3.91
2018-05-04T01:03:35.259Z,3.72
2018-05-04T01:06:00.997Z,3.69
2018-05-04T01:08:26.729Z,3.81
2018-05-04T01:10:52.460Z,4.07
2018-05-04T01:13:18.206Z,4.16
2018-05-04T01:15:43.944Z,4.01
2018-05-04T01:18:09.690Z,4.09
2018-05-04T01:20:35.405Z,4.15
2018-05-04T01:23:01.137Z,4.05
2018-05-04T01:25:26.868Z,4.02
2018-05-04T01:27:52.604Z,3.98
2018-05-04T01:30:18.335Z,3.85
2018-05-04T01:32:44.085Z,3.73
2018-05-04T01:35:09.808Z,3.89
2018-05-04T01:37:35.548Z,3.92
2018-05-04T01:40:01.289Z,3.79
2018-05-04T01:42:27.032Z,3.78
2018-05-04T01:44:52.758Z,3.60
2018-05-04T01:47:18.489Z,3.71
2018-05-04T01:49:44.223Z,3.72
2018-05-04T01:52:09.952Z,3.70
2018-05-04T01:54:35.680Z,3.68
2018-05-04T01:57:01.462Z,3.41
2018-05-04T01:59:27.199Z,3.26
2018-05-04T02:01:52.931Z,3.39
2018-05-04T02:04:18.655Z,3.54
2018-05-04T02:06:44.385Z,3.44
2018-05-04T02:09:10.154Z,3.24
2018-05-04T02:11:35.900Z,3.15
2018-05-04T02:14:01.627Z,3.23
2018-05-04T02:16:27.357Z,3.21
2018-05-04T02:18:53.097Z,3.16
2018-05-04T02:21:18.842Z,3.17
2018-05-04T02:23:44.572Z,3.15
2018-05-04T02:26:10.289Z,3.16
2018-05-04T02:28:36.012Z,3.14
2018-05-04T02:31:01.742Z,3.27
2018-05-04T02:33:27.477Z,3.37
2018-05-04T02:35:53.208Z,3.25
2018-05-04T02:38:18.944Z,3.14
2018-05-04T02:40:44.671Z,3.11
2018-05-04T02:43:10.402Z,3.10
2018-05-04T02:45:36.131Z,3.07
2018-05-04T02:48:01.874Z,2.88
2018-05-04T02:50:27.616Z,2.90
2018-05-04T02:52:53.352Z,2.98
2018-05-04T02:55:19.142Z,2.90
2018-05-04T02:57:44.849Z,2.82
2018-05-04T03:00:10.585Z,2.68
2018-05-04T03:02:36.317Z,2.80
2018-05-04T03:05:02.062Z,2.81
2018-05-04T03:07:27.804Z,2.80
2018-05-04T03:09:53.544Z,2.89
2018-05-04T03:12:19.279Z,2.90
2018-05-04T03:14:45.016Z,2.92
2018-05-04T03:17:10.751Z,2.90
2018-05-04T03:19:36.479Z,2.77
2018-05-04T03:22:02.320Z,2.82
2018-05-04T03:24:27.975Z,2.65
2018-05-04T03:26:53.708Z,2.55
2018-05-04T03:29:19.431Z,2.58
2018-05-04T03:31:45.156Z,2.51
2018-05-04T03:34:10.895Z,2.62
2018-05-04T03:36:36.631Z,2.64
2018-05-04T03:39:02.384Z,2.56
2018-05-04T03:41:28.120Z,2.36
2018-05-04T03:43:53.868Z,2.34
2018-05-04T03:46:19.613Z,2.60
2018-05-04T03:48:45.383Z,2.63
2018-05-04T03:51:11.081Z,2.46
2018-05-04T03:53:36.808Z,2.68
2018-05-04T03:56:02.536Z,2.81
2018-05-04T04:11:53.440Z,2.68
2018-05-04T04:14:19.188Z,2.70
2018-05-04T04:16:44.924Z,2.86
2018-05-04T04:19:10.665Z,2.75
2018-05-04T04:21:36.393Z,2.76
2018-05-04T04:24:02.132Z,2.96
2018-05-04T04:26:27.863Z,3.05
2018-05-04T04:28:53.599Z,2.96
2018-05-04T04:31:19.325Z,3.02
2018-05-04T04:33:45.056Z,3.25
2018-05-04T04:36:10.795Z,3.28
2018-05-04T04:38:36.535Z,3.27
2018-05-04T04:41:02.261Z,3.26
2018-05-04T04:43:28.000Z,3.30
2018-05-04T04:45:53.732Z,3.35
2018-05-04T04:48:19.468Z,3.39
2018-05-04T04:50:45.196Z,3.51
2018-05-04T04:53:10.938Z,3.55
2018-05-04T04:55:36.664Z,3.55
2018-05-04T04:58:02.408Z,3.64
2018-05-04T05:00:28.150Z,3.71
2018-05-04T05:02:53.876Z,3.83
2018-05-04T05:05:19.613Z,3.95
2018-05-04T05:07:45.353Z,4.08
2018-05-04T05:10:11.106Z,4.12
2018-05-04T05:12:36.836Z,4.21
2018-05-04T05:15:02.568Z,4.34
2018-05-04T05:17:28.294Z,4.40
2018-05-04T05:19:54.032Z,4.46
2018-05-04T05:22:19.745Z,4.65
2018-05-04T05:24:45.496Z,4.76
2018-05-04T05:27:11.220Z,4.85
2018-05-04T05:29:37.033Z,5.05
2018-05-04T05:32:02.697Z,5.16
2018-05-04T05:34:28.415Z,5.31
2018-05-04T05:36:54.136Z,5.44
2018-05-04T05:39:19.863Z,5.55
2018-05-04T05:41:45.590Z,5.73
2018-05-04T05:44:11.333Z,5.78
2018-05-04T05:46:37.055Z,5.87
2018-05-04T05:49:02.794Z,5.96
2018-05-04T05:51:28.513Z,6.09
2018-05-04T05:53:54.231Z,6.25
2018-05-04T05:56:19.952Z,6.39
2018-05-04T05:58:45.696Z,6.52
2018-05-04T06:01:11.424Z,6.66
2018-05-04T06:03:37.155Z,6.77
2018-05-04T06:06:02.892Z,6.99
2018-05-04T06:08:28.604Z,6.93
2018-05-04T06:10:54.337Z,6.81
2018-05-04T06:13:20.067Z,6.97
2018-05-04T06:15:45.808Z,7.30
2018-05-04T06:18:11.543Z,7.22
2018-05-04T06:20:37.281Z,7.15
2018-05-04T06:23:03.028Z,7.11
2018-05-04T06:25:28.761Z,7.67
2018-05-04T06:27:54.513Z,7.54
2018-05-04T06:30:20.293Z,7.35
2018-05-04T06:32:46.045Z,7.88
2018-05-04T06:35:11.768Z,7.94
2018-05-04T06:37:37.500Z,8.14
2018-05-04T06:40:03.228Z,8.67
2018-05-04T06:42:28.956Z,8.96
2018-05-04T06:44:54.713Z,8.71
2018-05-04T06:47:20.463Z,9.16
2018-05-04T06:49:46.191Z,9.70
2018-05-04T06:52:11.905Z,8.94
2018-05-04T06:54:37.638Z,8.72
2018-05-04T06:57:03.354Z,8.74
2018-05-04T06:59:29.119Z,8.95
2018-05-04T07:01:54.866Z,8.90
2018-05-04T07:04:20.625Z,9.08
2018-05-04T07:06:46.361Z,9.01
2018-05-04T07:09:12.088Z,8.88
2018-05-04T07:11:37.813Z,9.25
2018-05-04T07:14:03.544Z,9.45
2018-05-04T07:16:29.285Z,9.99
2018-05-04T07:18:55.024Z,10.32
2018-05-04T07:21:20.761Z,10.60
2018-05-04T07:23:46.491Z,10.52
2018-05-04T07:26:12.228Z,10.17
2018-05-04T07:28:38.028Z,10.84
2018-05-04T07:31:03.736Z,11.04
2018-05-04T07:33:29.483Z,10.86
2018-05-04T07:35:55.259Z,12.15
2018-05-04T07:38:20.997Z,12.31
2018-05-04T07:40:46.778Z,11.38
2018-05-04T07:43:12.599Z,11.53
2018-05-04T07:45:38.273Z,10.90
2018-05-04T07:48:04.045Z,11.51
2018-05-04T07:50:29.792Z,11.64
2018-05-04T07:52:55.508Z,11.23
2018-05-04T07:55:21.257Z,10.78
2018-05-04T07:57:47.000Z,11.60
2018-05-04T08:00:12.762Z,11.66
2018-05-04T08:02:38.499Z,11.22
2018-05-04T08:05:04.257Z,11.28
2018-05-04T08:07:29.997Z,11.18
2018-05-04T08:09:55.736Z,11.06
2018-05-04T08:12:21.468Z,11.09
2018-05-04T08:14:47.187Z,10.98
2018-05-04T08:17:12.940Z,11.09
2018-05-04T08:19:38.664Z,10.88
2018-05-04T08:22:04.410Z,10.84
2018-05-04T08:24:30.176Z,11.27
2018-05-04T08:26:55.913Z,11.47
2018-05-04T08:29:21.647Z,11.94
2018-05-04T08:31:47.379Z,11.58
2018-05-04T08:34:13.139Z,11.17
2018-05-04T08:36:38.884Z,11.77
2018-05-04T08:39:04.617Z,11.54
2018-05-04T08:41:30.376Z,12.35
2018-05-04T08:43:56.096Z,12.68
2018-05-04T08:46:21.832Z,12.64
2018-05-04T08:48:47.559Z,12.69
2018-05-04T08:51:13.326Z,12.44
2018-05-04T08:53:39.045Z,12.84
2018-05-04T08:56:04.788Z,13.47
2018-05-04T08:58:30.517Z,13.02
2018-05-04T09:00:56.255Z,12.93
2018-05-04T09:03:21.989Z,12.80
2018-05-04T09:05:47.719Z,13.55
2018-05-04T09:08:13.440Z,13.49
2018-05-04T09:10:39.173Z,13.70
2018-05-04T09:13:04.904Z,13.83
2018-05-04T09:15:30.654Z,13.63
2018-05-04T09:17:56.380Z,13.51
2018-05-04T09:20:22.100Z,13.04
2018-05-04T09:22:47.844Z,13.52
2018-05-04T09:25:13.628Z,13.99
2018-05-04T09:27:39.324Z,13.63
2018-05-04T09:30:05.048Z,13.89
2018-05-04T09:32:30.792Z,14.10
2018-05-04T09:34:56.532Z,14.06
2018-05-04T09:37:22.279Z,13.56
2018-05-04T09:39:48.000Z,13.40
2018-05-04T09:42:13.738Z,14.20
2018-05-04T09:44:39.457Z,14.32
2018-05-04T09:47:05.213Z,13.63
2018-05-04T09:49:30.944Z,13.35
2018-05-04T09:51:56.681Z,14.13
2018-05-04T09:54:22.417Z,15.43
2018-05-04T09:56:48.150Z,15.47
2018-05-04T09:59:13.889Z,14.82
2018-05-04T10:01:39.634Z,14.90
2018-05-04T10:04:05.369Z,14.83
2018-05-04T10:06:31.150Z,15.17
2018-05-04T10:08:56.882Z,14.43
2018-05-04T10:11:22.624Z,14.20
2018-05-04T10:13:48.343Z,14.40
2018-05-04T10:16:14.088Z,13.65
2018-05-04T10:18:39.815Z,14.01
2018-05-04T10:21:05.881Z,14.67
2018-05-04T10:23:31.945Z,15.46
2018-05-04T10:25:58.028Z,16.75
2018-05-04T10:28:23.801Z,15.66
2018-05-04T10:30:49.915Z,15.05
2018-05-04T10:33:15.692Z,14.90
2018-05-04T10:35:41.422Z,15.16
2018-05-04T10:38:07.194Z,15.20
2018-05-04T10:40:32.944Z,15.32
2018-05-04T10:42:58.690Z,15.17
2018-05-04T10:45:24.425Z,14.48
2018-05-04T10:47:50.163Z,15.21
2018-05-04T10:50:15.934Z,16.30
2018-05-04T10:52:41.697Z,16.46
2018-05-04T10:55:07.456Z,14.91
2018-05-04T10:57:33.196Z,15.69
2018-05-04T10:59:58.944Z,15.62
2018-05-04T11:02:24.682Z,15.33
2018-05-04T11:04:50.414Z,15.77
2018-05-04T11:07:16.168Z,15.94
2018-05-04T11:09:41.908Z,15.40
2018-05-04T11:12:07.658Z,15.32
2018-05-04T11:14:33.388Z,15.24
2018-05-04T11:17:04.158Z,15.32
2018-05-04T11:19:30.335Z,15.59
2018-05-04T11:21:56.060Z,15.60
2018-05-04T11:24:25.002Z,16.14
2018-05-04T11:26:52.248Z,17.05
2018-05-04T11:29:18.077Z,16.67
2018-05-04T11:31:43.826Z,16.33
2018-05-04T11:34:09.616Z,16.61
2018-05-04T11:36:35.358Z,16.40
2018-05-04T11:39:01.107Z,16.02
2018-05-04T11:41:27.042Z,16.60
2018-05-04T11:43:52.800Z,16.46
2018-05-04T11:46:18.528Z,15.88
2018-05-04T11:48:44.281Z,16.98
2018-05-04T11:51:10.014Z,16.61
2018-05-04T11:53:35.959Z,17.06
2018-05-04T11:56:01.886Z,16.24
2018-05-04T11:58:27.851Z,16.81
2018-05-04T12:00:53.834Z,16.80
2018-05-04T12:03:19.807Z,16.80
2018-05-04T12:05:45.755Z,16.58
2018-05-04T12:08:11.504Z,16.69
2018-05-04T12:10:37.224Z,16.82
2018-05-04T12:13:02.983Z,16.91
2018-05-04T12:15:28.726Z,16.63
2018-05-04T12:17:54.465Z,18.01
2018-05-04T12:20:20.213Z,18.34
2018-05-04T12:22:46.236Z,17.69
2018-05-04T12:25:11.947Z,17.02
2018-05-04T12:27:37.688Z,17.06
2018-05-04T12:30:03.436Z,17.62
2018-05-04T12:32:29.180Z,18.05
2018-05-04T12:34:55.081Z,17.20
2018-05-04T12:37:20.841Z,17.26
2018-05-04T12:39:46.569Z,17.62
2018-05-04T12:42:12.300Z,16.69
2018-05-04T12:44:38.035Z,16.57
2018-05-04T12:47:03.829Z,17.05
2018-05-04T12:49:29.717Z,17.27
2018-05-04T12:51:55.643Z,16.74
2018-05-04T12:54:21.599Z,17.05
2018-05-04T12:56:47.597Z,16.79
2018-05-04T12:59:13.340Z,17.17
2018-05-04T13:01:39.068Z,16.90
2018-05-04T13:04:04.801Z,17.08
2018-05-04T13:06:30.527Z,17.28
2018-05-04T13:08:56.288Z,16.88
2018-05-04T13:11:22.152Z,16.89
2018-05-04T13:13:48.070Z,17.60
2018-05-04T13:16:13.952Z,17.57
2018-05-04T13:18:39.852Z,17.39
2018-05-04T13:21:05.577Z,17.28
2018-05-04T13:23:31.316Z,17.25
2018-05-04T13:25:57.043Z,17.46
2018-05-04T13:28:22.784Z,17.25
2018-05-04T13:30:48.513Z,16.83
2018-05-04T13:33:14.252Z,17.32
2018-05-04T13:35:39.987Z,16.93
2018-05-04T13:38:05.724Z,17.66
2018-05-04T13:40:31.460Z,17.58
2018-05-04T13:42:57.212Z,17.62
2018-05-04T13:45:22.942Z,17.51
2018-05-04T13:47:48.697Z,17.45
2018-05-04T13:50:14.420Z,17.43
2018-05-04T13:52:40.148Z,17.14
2018-05-04T13:55:05.893Z,16.76
2018-05-04T13:57:31.615Z,16.94
2018-05-04T13:59:57.377Z,17.05
2018-05-04T14:02:23.124Z,17.03
2018-05-04T14:04:48.880Z,17.39
2018-05-04T14:07:14.621Z,16.95
2018-05-04T14:09:40.373Z,17.20
2018-05-04T14:12:06.116Z,16.53
2018-05-04T14:14:31.856Z,17.03
2018-05-04T14:16:57.609Z,16.22
2018-05-04T14:19:23.348Z,16.65
2018-05-04T14:21:49.086Z,16.75
2018-05-04T14:24:14.827Z,16.76
2018-05-04T14:26:40.560Z,16.88
2018-05-04T14:29:06.308Z,16.28
2018-05-04T14:31:32.087Z,16.66
2018-05-04T14:33:57.828Z,16.56
2018-05-04T14:36:23.561Z,16.39
2018-05-04T14:38:49.308Z,16.43
2018-05-04T14:41:15.038Z,16.96
2018-05-04T14:43:40.781Z,16.61
2018-05-04T14:46:06.577Z,16.27
2018-05-04T14:48:32.327Z,16.29
2018-05-04T14:50:58.054Z,16.16
2018-05-04T14:53:23.812Z,16.37
2018-05-04T14:55:49.548Z,16.96
2018-05-04T14:58:15.332Z,16.32
2018-05-04T15:00:41.073Z,16.38
2018-05-04T15:03:06.804Z,16.28
2018-05-04T15:05:32.550Z,16.51
2018-05-04T15:07:58.282Z,16.48
2018-05-04T15:10:24.025Z,16.80
2018-05-04T15:12:49.757Z,16.51
2018-05-04T15:15:15.497Z,16.77
2018-05-04T15:17:41.240Z,16.26
2018-05-04T15:20:06.981Z,16.23
2018-05-04T15:22:32.713Z,16.23
2018-05-04T15:24:58.516Z,16.35
2018-05-04T15:27:24.185Z,16.22
2018-05-04T15:29:49.964Z,15.88
2018-05-04T15:32:15.707Z,15.87
2018-05-04T15:34:41.440Z,15.98
2018-05-04T15:37:07.173Z,15.93
2018-05-04T15:39:32.912Z,16.21
2018-05-04T15:41:58.639Z,16.32
2018-05-04T15:44:24.385Z,16.09
2018-05-04T15:46:50.111Z,16.51
2018-05-04T15:49:19.833Z,16.52
2018-05-04T15:51:51.809Z,16.14
2018-05-04T15:54:17.573Z,16.31
2018-05-04T15:56:43.321Z,16.19
2018-05-04T15:59:09.124Z,16.01
2018-05-04T16:01:34.861Z,16.17
2018-05-04T16:04:00.626Z,16.46
2018-05-04T16:06:26.428Z,16.52
2018-05-04T16:08:52.273Z,16.37
2018-05-04T16:11:18.005Z,16.29
2018-05-04T16:13:43.754Z,16.38
2018-05-04T16:16:09.474Z,16.27
2018-05-04T16:18:35.193Z,16.53
2018-05-04T16:21:00.941Z,16.42
2018-05-04T16:23:26.660Z,16.36
2018-05-04T16:25:52.400Z,16.33
2018-05-04T16:28:18.117Z,16.23
2018-05-04T16:30:43.874Z,16.20
2018-05-04T16:33:09.618Z,16.19
2018-05-04T16:35:35.406Z,15.86
2018-05-04T16:38:01.145Z,15.90
2018-05-04T16:40:26.896Z,15.93
2018-05-04T16:42:52.664Z,15.82
2018-05-04T16:45:18.485Z,15.90
2018-05-04T16:47:50.348Z,16.02
2018-05-04T16:50:16.085Z,16.09
2018-05-04T16:52:41.821Z,16.09
2018-05-04T16:55:07.555Z,15.72
2018-05-04T16:57:33.307Z,15.56
2018-05-04T16:59:59.112Z,15.61
2018-05-04T17:02:24.928Z,15.56
2018-05-04T17:04:50.688Z,15.57
2018-05-04T17:07:16.448Z,15.36
2018-05-04T17:09:42.180Z,15.20
2018-05-04T17:12:07.930Z,15.54
2018-05-04T17:14:33.660Z,15.34
2018-05-04T17:16:59.412Z,15.24
2018-05-04T17:19:25.244Z,15.21
2018-05-04T17:21:51.040Z,15.10
2018-05-04T17:24:16.864Z,15.13
2018-05-04T17:26:42.609Z,14.85
2018-05-04T17:29:08.352Z,14.70
2018-05-04T17:31:34.095Z,14.57
2018-05-04T17:33:59.871Z,14.59
2018-05-04T17:36:25.567Z,14.47
2018-05-04T17:38:51.296Z,14.44
2018-05-04T17:41:17.062Z,14.32
2018-05-04T17:43:42.818Z,14.31
2018-05-04T17:46:08.574Z,14.28
2018-05-04T17:48:34.375Z,14.24
2018-05-04T17:51:00.157Z,14.12
2018-05-04T17:53:26.020Z,14.18
2018-05-04T17:55:51.839Z,14.02
2018-05-04T17:58:17.580Z,13.92
2018-05-04T18:00:43.385Z,13.85
2018-05-04T18:03:09.134Z,13.81
2018-05-04T18:05:34.983Z,13.85
2018-05-04T18:08:00.706Z,13.71
2018-05-04T18:10:26.429Z,13.65
2018-05-04T18:12:52.176Z,13.56
2018-05-04T18:15:17.908Z,13.48
2018-05-04T18:17:43.672Z,13.33
2018-05-04T18:20:09.389Z,13.23
2018-05-04T18:22:35.119Z,13.13
2018-05-04T18:25:00.849Z,12.98
2018-05-04T18:27:26.584Z,13.00
2018-05-04T18:29:52.300Z,12.91
2018-05-04T18:32:18.061Z,12.89
2018-05-04T18:34:43.788Z,12.75
2018-05-04T18:37:09.527Z,12.83
2018-05-04T18:39:35.266Z,12.73
2018-05-04T18:42:00.996Z,12.56
2018-05-04T18:44:26.711Z,12.58
2018-05-04T18:46:52.449Z,12.51
2018-05-04T18:49:18.175Z,12.46
2018-05-04T18:51:43.921Z,12.42
2018-05-04T18:54:09.655Z,12.35
2018-05-04T18:56:35.408Z,12.26
2018-05-04T18:59:01.140Z,12.03
2018-05-04T19:01:26.878Z,11.98
2018-05-04T19:03:52.600Z,11.93
2018-05-04T19:06:18.340Z,11.93
2018-05-04T19:08:44.069Z,11.87
2018-05-04T19:11:09.813Z,11.64
2018-05-04T19:13:35.549Z,11.73
2018-05-04T19:16:01.289Z,11.72
2018-05-04T19:18:27.029Z,11.76
2018-05-04T19:20:52.792Z,11.72
2018-05-04T19:23:18.525Z,11.72
2018-05-04T19:25:44.260Z,11.70
2018-05-04T19:28:10.006Z,11.61
2018-05-04T19:30:35.756Z,11.62
2018-05-04T19:33:01.493Z,11.48
2018-05-04T19:35:27.242Z,11.39
2018-05-04T19:37:52.989Z,11.32
2018-05-04T19:40:18.720Z,11.20
2018-05-04T19:42:44.461Z,10.95
2018-05-04T19:45:10.196Z,10.79
2018-05-04T19:47:36.665Z,10.66
2018-05-04T19:50:02.424Z,10.67
2018-05-04T19:52:28.165Z,10.70
2018-05-04T19:54:53.897Z,10.60
2018-05-04T19:57:19.646Z,10.51
2018-05-04T19:59:45.392Z,10.45
2018-05-04T20:02:11.136Z,10.38
2018-05-04T20:04:36.865Z,10.23
2018-05-04T20:07:02.689Z,10.27
2018-05-04T20:09:28.368Z,10.30
2018-05-04T20:11:54.118Z,10.14
2018-05-04T20:14:19.845Z,10.00
2018-05-04T20:16:46.035Z,9.88
2018-05-04T20:19:11.769Z,9.83
2018-05-04T20:21:37.500Z,9.68
2018-05-04T20:24:03.242Z,9.61
2018-05-04T20:26:28.997Z,9.71
2018-05-04T20:28:54.765Z,9.77
2018-05-04T20:31:20.477Z,9.71
2018-05-04T20:33:46.213Z,9.70
2018-05-04T20:36:11.941Z,9.47
2018-05-04T20:38:37.743Z,9.41
2018-05-04T20:41:03.492Z,9.38
2018-05-04T20:43:29.228Z,9.39
2018-05-04T20:45:54.960Z,9.45
2018-05-04T20:48:20.705Z,9.32
2018-05-04T20:50:46.445Z,9.16
2018-05-04T20:53:12.204Z,9.17
2018-05-04T20:55:37.945Z,9.13
2018-05-04T20:58:03.679Z,9.10
2018-05-04T21:00:29.395Z,9.04
2018-05-04T21:02:55.145Z,9.04
2018-05-04T21:05:20.869Z,8.90
2018-05-04T21:07:46.616Z,8.86
2018-05-04T21:10:12.351Z,8.92
2018-05-04T21:12:38.080Z,8.91
2018-05-04T21:15:03.813Z,8.85
2018-05-04T21:17:29.531Z,8.73
2018-05-04T21:19:55.333Z,8.52
2018-05-04T21:22:21.012Z,8.58
2018-05-04T21:24:46.753Z,8.66
2018-05-04T21:27:12.489Z,8.63
2018-05-04T21:29:38.216Z,8.59
2018-05-04T21:32:03.943Z,8.53
2018-05-04T21:34:29.672Z,8.47
2018-05-04T21:36:55.399Z,8.43
2018-05-04T21:39:21.140Z,8.42
2018-05-04T21:41:46.874Z,8.37
2018-05-04T21:44:12.595Z,8.41
2018-05-04T21:46:38.309Z,8.49
2018-05-04T21:49:04.050Z,8.43
2018-05-04T21:51:29.777Z,8.40
2018-05-04T21:53:55.507Z,8.31
2018-05-04T21:56:21.228Z,8.26
2018-05-04T21:58:46.960Z,8.18
2018-05-04T22:01:12.701Z,8.22
2018-05-04T22:03:38.440Z,8.09
2018-05-04T22:06:04.171Z,8.17
2018-05-04T22:08:29.929Z,8.07
2018-05-04T22:10:55.665Z,8.03
2018-05-04T22:13:21.401Z,8.04
2018-05-04T22:15:47.133Z,7.99
2018-05-04T22:18:12.876Z,7.88
2018-05-04T22:20:38.605Z,7.86
2018-05-04T22:23:04.329Z,7.87
2018-05-04T22:25:30.065Z,7.82
2018-05-04T22:27:55.784Z,7.78
2018-05-04T22:30:21.521Z,7.76
2018-05-04T22:32:47.252Z,7.78
2018-05-04T22:35:12.977Z,7.76
2018-05-04T22:37:38.704Z,7.73
2018-05-04T22:40:04.424Z,7.69
2018-05-04T22:42:30.164Z,7.57
2018-05-04T22:44:55.899Z,7.43
2018-05-04T22:47:21.647Z,7.44
2018-05-04T22:49:47.365Z,7.42
2018-05-04T22:52:13.080Z,7.39
2018-05-04T22:54:38.817Z,7.47
2018-05-04T22:57:04.537Z,7.40
2018-05-04T22:59:30.288Z,7.41
2018-05-04T23:01:56.024Z,7.44
2018-05-04T23:04:21.781Z,7.38
2018-05-04T23:06:47.535Z,7.32
2018-05-04T23:09:13.281Z,7.28
2018-05-04T23:11:39.014Z,7.21
2018-05-04T23:14:04.744Z,7.07
2018-05-04T23:16:30.533Z,7.01
2018-05-04T23:18:56.215Z,6.91
2018-05-04T23:21:21.948Z,7.07
2018-05-04T23:23:47.688Z,7.07
2018-05-04T23:26:13.424Z,7.02
2018-05-04T23:28:39.164Z,6.90
2018-05-04T23:31:04.893Z,6.89
2018-05-04T23:33:30.654Z,6.88
2018-05-04T23:35:56.386Z,6.88
2018-05-04T23:38:22.124Z,6.90
2018-05-04T23:40:47.860Z,6.82
2018-05-04T23:43:13.598Z,6.66
2018-05-04T23:45:39.324Z,6.55
2018-05-04T23:48:05.078Z,6.60
2018-05-04T23:50:30.941Z,6.56
2018-05-04T23:52:56.671Z,6.58
2018-05-04T23:55:22.409Z,6.62
2018-05-04T23:57:48.154Z,6.57
